sensor_id;sensor_type;location;lat;lon;timestamp;temperature;humidity
1992;DHT22;997;48.448;8.924;2022-12-18T10:00:54;-4.00;99.90
1992;DHT22;997;48.448;8.924;2022-12-18T10:03:21;-3.90;99.90
1992;DHT22;997;48.448;8.924;2022-12-18T10:06:13;-3.80;99.90
1992;DHT22;997;48.448;8.924;2022-12-18T10:14:20;-3.60;99.90
1992;DHT22;997;48.448;8.924;2022-12-18T10:27:31;-3.20;99.90
1992;DHT22;997;48.448;8.924;2022-12-18T10:29:57;-3.20;99.90
1992;DHT22;997;48.448;8.924;2022-12-18T10:32:26;-3.20;99.90
1992;DHT22;997;48.448;8.924;2022-12-18T10:34:55;-3.10;99.90
1992;DHT22;997;48.448;8.924;2022-12-18T10:37:27;-3.00;99.90
1992;DHT22;997;48.448;8.924;2022-12-18T10:40:07;-2.90;99.90
1992;DHT22;997;48.448;8.924;2022-12-18T10:42:34;-2.80;99.90
1992;DHT22;997;48.448;8.924;2022-12-18T10:45:11;-2.70;99.90
1992;DHT22;997;48.448;8.924;2022-12-18T10:47:50;-2.60;99.90
1992;DHT22;997;48.448;8.924;2022-12-18T10:50:28;-2.60;99.90
1992;DHT22;997;48.448;8.924;2022-12-18T10:53:05;-2.50;99.90
1992;DHT22;997;48.448;8.924;2022-12-18T10:55:38;-2.30;99.90
1992;DHT22;997;48.448;8.924;2022-12-18T10:58:26;-2.20;99.90
1992;DHT22;997;48.448;8.924;2022-12-18T11:01:05;-2.00;99.90
1992;DHT22;997;48.448;8.924;2022-12-18T11:03:40;-2.10;99.90
1992;DHT22;997;48.448;8.924;2022-12-18T11:06:17;-2.00;99.90
1992;DHT22;997;48.448;8.924;2022-12-18T11:08:56;-1.90;99.90
1992;DHT22;997;48.448;8.924;2022-12-18T11:11:24;-1.70;99.90
1992;DHT22;997;48.448;8.924;2022-12-18T11:14:03;-1.50;99.90
1992;DHT22;997;48.448;8.924;2022-12-18T11:16:51;-1.30;99.90
1992;DHT22;997;48.448;8.924;2022-12-18T11:19:33;-1.00;99.90
1992;DHT22;997;48.448;8.924;2022-12-18T11:22:02;-0.90;99.90
1992;DHT22;997;48.448;8.924;2022-12-18T11:24:31;-0.80;99.90
1992;DHT22;997;48.448;8.924;2022-12-18T11:27:00;-0.70;99.90
1992;DHT22;997;48.448;8.924;2022-12-18T11:29:36;-0.60;99.90
1992;DHT22;997;48.448;8.924;2022-12-18T11:34:42;-0.20;99.90
1992;DHT22;997;48.448;8.924;2022-12-18T11:37:09;-0.30;99.90
1992;DHT22;997;48.448;8.924;2022-12-18T11:39:45;-0.50;99.90
1992;DHT22;997;48.448;8.924;2022-12-18T11:44:58;-0.80;99.90
1992;DHT22;997;48.448;8.924;2022-12-18T11:50:19;-0.70;99.90
1992;DHT22;997;48.448;8.924;2022-12-18T11:52:46;-0.80;99.90
1992;DHT22;997;48.448;8.924;2022-12-18T11:55:25;-0.80;99.90
1992;DHT22;997;48.448;8.924;2022-12-18T12:00:26;-1.20;99.90
1992;DHT22;997;48.448;8.924;2022-12-18T12:25:52;-1.30;99.90
1992;DHT22;997;48.448;8.924;2022-12-18T12:36:40;-0.40;99.90
1992;DHT22;997;48.448;8.924;2022-12-18T12:39:10;-0.10;99.90
1992;DHT22;997;48.448;8.924;2022-12-18T12:41:39;0.10;99.90
1992;DHT22;997;48.448;8.924;2022-12-18T12:44:39;0.30;99.90
1992;DHT22;997;48.448;8.924;2022-12-18T12:47:41;0.40;99.90
1992;DHT22;997;48.448;8.924;2022-12-18T12:50:15;0.10;99.90
1992;DHT22;997;48.448;8.924;2022-12-18T12:52:52;-0.30;99.90
1992;DHT22;997;48.448;8.924;2022-12-18T12:55:22;-0.60;99.90
1992;DHT22;997;48.448;8.924;2022-12-18T13:00:20;-0.70;99.90
1992;DHT22;997;48.448;8.924;2022-12-18T13:05:40;-1.30;99.90
1992;DHT22;997;48.448;8.924;2022-12-18T13:08:11;-1.60;99.90
1992;DHT22;997;48.448;8.924;2022-12-18T13:10:37;-2.00;99.90
1992;DHT22;997;48.448;8.924;2022-12-18T13:13:05;-2.40;99.90
1992;DHT22;997;48.448;8.924;2022-12-18T13:20:37;-2.20;99.90
1992;DHT22;997;48.448;8.924;2022-12-18T13:26:28;-1.90;99.90
1992;DHT22;997;48.448;8.924;2022-12-18T13:34:24;-1.70;99.90
1992;DHT22;997;48.448;8.924;2022-12-18T13:36:53;-1.70;99.90
1992;DHT22;997;48.448;8.924;2022-12-18T13:41:53;-1.50;99.90
1992;DHT22;997;48.448;8.924;2022-12-18T13:44:37;-1.30;99.90
1992;DHT22;997;48.448;8.924;2022-12-18T13:47:31;-0.90;99.90
1992;DHT22;997;48.448;8.924;2022-12-18T13:49:57;-0.70;99.90
1992;DHT22;997;48.448;8.924;2022-12-18T13:52:36;-0.40;99.90
1992;DHT22;997;48.448;8.924;2022-12-18T13:55:05;-0.20;99.90
1992;DHT22;997;48.448;8.924;2022-12-18T13:57:37;0.00;99.90
1992;DHT22;997;48.448;8.924;2022-12-18T14:00:31;0.10;99.90
1992;DHT22;997;48.448;8.924;2022-12-18T14:02:58;0.30;99.90
1992;DHT22;997;48.448;8.924;2022-12-18T14:05:25;0.40;99.90
1992;DHT22;997;48.448;8.924;2022-12-18T14:07:52;0.50;99.90
1992;DHT22;997;48.448;8.924;2022-12-18T14:10:18;0.60;99.90
1992;DHT22;997;48.448;8.924;2022-12-18T14:12:47;0.70;99.90
1992;DHT22;997;48.448;8.924;2022-12-18T14:18:03;0.80;99.90
1992;DHT22;997;48.448;8.924;2022-12-18T14:20:31;0.90;99.90
1992;DHT22;997;48.448;8.924;2022-12-18T14:22:58;0.70;99.90
1992;DHT22;997;48.448;8.924;2022-12-18T14:25:28;0.30;99.90
1992;DHT22;997;48.448;8.924;2022-12-18T14:30:36;0.20;99.90
1992;DHT22;997;48.448;8.924;2022-12-18T14:33:14;0.20;99.90
1992;DHT22;997;48.448;8.924;2022-12-18T14:35:41;0.20;99.90
1992;DHT22;997;48.448;8.924;2022-12-18T14:40:42;-0.40;99.90
1992;DHT22;997;48.448;8.924;2022-12-18T14:43:11;-0.50;99.90
1992;DHT22;997;48.448;8.924;2022-12-18T14:45:44;-0.40;99.90
1992;DHT22;997;48.448;8.924;2022-12-18T14:50:37;-0.40;99.90
1992;DHT22;997;48.448;8.924;2022-12-18T14:53:03;-0.40;99.90
1992;DHT22;997;48.448;8.924;2022-12-18T14:55:29;-0.40;99.90
1992;DHT22;997;48.448;8.924;2022-12-18T14:57:57;-0.30;99.90
1992;DHT22;997;48.448;8.924;2022-12-18T15:00:24;-0.30;99.90
1992;DHT22;997;48.448;8.924;2022-12-18T15:02:55;-0.30;99.90
1992;DHT22;997;48.448;8.924;2022-12-18T15:05:29;-0.20;99.90
1992;DHT22;997;48.448;8.924;2022-12-18T15:07:58;-0.30;99.90
1992;DHT22;997;48.448;8.924;2022-12-18T15:10:26;-0.30;99.90
1992;DHT22;997;48.448;8.924;2022-12-18T15:18:21;-0.60;99.90
1992;DHT22;997;48.448;8.924;2022-12-18T15:20:51;-0.60;99.90
1992;DHT22;997;48.448;8.924;2022-12-18T15:23:23;-1.00;99.90
1992;DHT22;997;48.448;8.924;2022-12-18T15:26:10;-1.10;99.90
1992;DHT22;997;48.448;8.924;2022-12-18T15:28:57;-1.00;99.90
1992;DHT22;997;48.448;8.924;2022-12-18T15:31:33;-1.50;99.90
1992;DHT22;997;48.448;8.924;2022-12-18T15:34:10;-1.70;99.90
1992;DHT22;997;48.448;8.924;2022-12-18T15:36:36;-1.50;99.90
1992;DHT22;997;48.448;8.924;2022-12-18T15:39:03;-1.80;99.90
1992;DHT22;997;48.448;8.924;2022-12-18T15:41:34;-1.90;99.90
1992;DHT22;997;48.448;8.924;2022-12-18T15:44:00;-1.90;99.90
1992;DHT22;997;48.448;8.924;2022-12-18T15:46:26;-1.70;99.90
1992;DHT22;997;48.448;8.924;2022-12-18T15:48:56;-1.70;99.90
1992;DHT22;997;48.448;8.924;2022-12-18T15:51:34;-1.60;99.90
1992;DHT22;997;48.448;8.924;2022-12-18T15:54:03;-1.60;99.90
1992;DHT22;997;48.448;8.924;2022-12-18T15:56:29;-1.60;99.90
1992;DHT22;997;48.448;8.924;2022-12-18T15:59:18;-1.60;99.90
1992;DHT22;997;48.448;8.924;2022-12-18T16:01:49;-1.60;99.90
1992;DHT22;997;48.448;8.924;2022-12-18T16:04:17;-1.60;99.90
1992;DHT22;997;48.448;8.924;2022-12-18T16:06:46;-1.60;99.90
1992;DHT22;997;48.448;8.924;2022-12-18T16:09:12;-1.60;99.90
1992;DHT22;997;48.448;8.924;2022-12-18T16:11:39;-1.60;99.90
1992;DHT22;997;48.448;8.924;2022-12-18T16:14:27;-1.60;99.90
1992;DHT22;997;48.448;8.924;2022-12-18T16:17:05;-1.60;99.90
1992;DHT22;997;48.448;8.924;2022-12-18T16:19:34;-1.90;99.90
1992;DHT22;997;48.448;8.924;2022-12-18T16:22:00;-1.90;99.90
1992;DHT22;997;48.448;8.924;2022-12-18T16:24:31;-2.00;99.90
1992;DHT22;997;48.448;8.924;2022-12-18T16:27:00;-2.10;99.90
1992;DHT22;997;48.448;8.924;2022-12-18T16:29:28;-2.20;99.90
1992;DHT22;997;48.448;8.924;2022-12-18T16:31:58;-2.30;99.90
1992;DHT22;997;48.448;8.924;2022-12-18T16:34:29;-2.30;99.90
1992;DHT22;997;48.448;8.924;2022-12-18T16:37:06;-2.30;99.90
1992;DHT22;997;48.448;8.924;2022-12-18T16:39:33;-2.30;99.90
1992;DHT22;997;48.448;8.924;2022-12-18T16:42:00;-2.40;99.90
1992;DHT22;997;48.448;8.924;2022-12-18T16:44:26;-2.40;99.90
1992;DHT22;997;48.448;8.924;2022-12-18T16:46:51;-2.40;99.90
1992;DHT22;997;48.448;8.924;2022-12-18T16:49:18;-2.40;99.90
1992;DHT22;997;48.448;8.924;2022-12-18T16:51:45;-2.40;99.90
1992;DHT22;997;48.448;8.924;2022-12-18T16:54:11;-2.40;99.90
1992;DHT22;997;48.448;8.924;2022-12-18T16:56:37;-2.40;99.90
1992;DHT22;997;48.448;8.924;2022-12-18T16:59:04;-2.40;99.90
1992;DHT22;997;48.448;8.924;2022-12-18T17:01:30;-2.40;99.90
1992;DHT22;997;48.448;8.924;2022-12-18T17:03:59;-2.30;99.90
1992;DHT22;997;48.448;8.924;2022-12-18T17:06:26;-2.30;99.90
1992;DHT22;997;48.448;8.924;2022-12-18T17:08:57;-2.30;99.90
1992;DHT22;997;48.448;8.924;2022-12-18T17:11:27;-2.30;99.90
1992;DHT22;997;48.448;8.924;2022-12-18T17:13:53;-2.20;99.90
1992;DHT22;997;48.448;8.924;2022-12-18T17:16:19;-2.30;99.90
1992;DHT22;997;48.448;8.924;2022-12-18T17:18:45;-2.20;99.90
1992;DHT22;997;48.448;8.924;2022-12-18T17:21:12;-2.20;99.90
1992;DHT22;997;48.448;8.924;2022-12-18T17:23:39;-2.10;99.90
1992;DHT22;997;48.448;8.924;2022-12-18T17:26:05;-2.00;99.90
1992;DHT22;997;48.448;8.924;2022-12-18T17:28:33;-2.10;99.90
1992;DHT22;997;48.448;8.924;2022-12-18T17:30:59;-2.10;99.90
1992;DHT22;997;48.448;8.924;2022-12-18T17:33:26;-2.10;99.90
1992;DHT22;997;48.448;8.924;2022-12-18T17:35:52;-2.10;99.90
1992;DHT22;997;48.448;8.924;2022-12-18T17:38:18;-2.00;99.90
1992;DHT22;997;48.448;8.924;2022-12-18T17:40:43;-2.00;99.90
1992;DHT22;997;48.448;8.924;2022-12-18T17:43:09;-2.00;99.90
1992;DHT22;997;48.448;8.924;2022-12-18T17:45:37;-2.00;99.90
1992;DHT22;997;48.448;8.924;2022-12-18T17:48:04;-2.00;99.90
1992;DHT22;997;48.448;8.924;2022-12-18T17:50:31;-2.00;99.90
1992;DHT22;997;48.448;8.924;2022-12-18T17:52:57;-2.00;99.90
1992;DHT22;997;48.448;8.924;2022-12-18T17:55:23;-2.10;99.90
1992;DHT22;997;48.448;8.924;2022-12-18T17:57:49;-2.10;99.90
1992;DHT22;997;48.448;8.924;2022-12-18T18:00:15;-2.00;99.90
1992;DHT22;997;48.448;8.924;2022-12-18T18:02:41;-2.00;99.90
1992;DHT22;997;48.448;8.924;2022-12-18T18:05:07;-2.00;99.90
1992;DHT22;997;48.448;8.924;2022-12-18T18:07:32;-1.90;99.90
1992;DHT22;997;48.448;8.924;2022-12-18T18:09:58;-1.80;99.90
1992;DHT22;997;48.448;8.924;2022-12-18T18:12:24;-1.80;99.90
1992;DHT22;997;48.448;8.924;2022-12-18T18:15:08;-1.70;99.90
1992;DHT22;997;48.448;8.924;2022-12-18T18:17:34;-1.70;99.90
1992;DHT22;997;48.448;8.924;2022-12-18T18:19:59;-1.80;99.90
1992;DHT22;997;48.448;8.924;2022-12-18T18:22:25;-1.80;99.90
1992;DHT22;997;48.448;8.924;2022-12-18T18:24:51;-1.80;99.90
1992;DHT22;997;48.448;8.924;2022-12-18T18:27:17;-1.80;99.90
1992;DHT22;997;48.448;8.924;2022-12-18T18:29:43;-1.90;99.90
1992;DHT22;997;48.448;8.924;2022-12-18T18:32:09;-2.10;99.90
1992;DHT22;997;48.448;8.924;2022-12-18T18:34:35;-2.30;99.90
1992;DHT22;997;48.448;8.924;2022-12-18T18:37:01;-2.20;99.90
1992;DHT22;997;48.448;8.924;2022-12-18T18:39:27;-2.20;99.90
1992;DHT22;997;48.448;8.924;2022-12-18T18:41:53;-2.20;99.90
1992;DHT22;997;48.448;8.924;2022-12-18T18:44:20;-2.20;99.90
1992;DHT22;997;48.448;8.924;2022-12-18T18:46:46;-2.20;99.90
1992;DHT22;997;48.448;8.924;2022-12-18T18:49:12;-2.10;99.90
1992;DHT22;997;48.448;8.924;2022-12-18T18:51:39;-2.10;99.90
1992;DHT22;997;48.448;8.924;2022-12-18T18:54:05;-2.00;99.90
1992;DHT22;997;48.448;8.924;2022-12-18T18:56:31;-1.90;99.90
1992;DHT22;997;48.448;8.924;2022-12-18T18:58:58;-2.10;99.90
1992;DHT22;997;48.448;8.924;2022-12-18T19:01:24;-2.10;99.90
1992;DHT22;997;48.448;8.924;2022-12-18T19:03:50;-2.30;99.90
1992;DHT22;997;48.448;8.924;2022-12-18T19:06:19;-2.20;99.90
1992;DHT22;997;48.448;8.924;2022-12-18T19:08:46;-2.10;99.90
1992;DHT22;997;48.448;8.924;2022-12-18T19:11:12;-2.00;99.90
1992;DHT22;997;48.448;8.924;2022-12-18T19:13:58;-2.00;99.90
1992;DHT22;997;48.448;8.924;2022-12-18T19:16:25;-2.10;99.90
1992;DHT22;997;48.448;8.924;2022-12-18T19:18:51;-2.00;99.90
1992;DHT22;997;48.448;8.924;2022-12-18T19:21:19;-1.80;99.90
1992;DHT22;997;48.448;8.924;2022-12-18T19:23:45;-1.90;99.90
1992;DHT22;997;48.448;8.924;2022-12-18T19:26:12;-2.00;99.90
1992;DHT22;997;48.448;8.924;2022-12-18T19:28:38;-2.10;99.90
1992;DHT22;997;48.448;8.924;2022-12-18T19:31:06;-2.10;99.90
1992;DHT22;997;48.448;8.924;2022-12-18T19:33:35;-2.20;99.90
1992;DHT22;997;48.448;8.924;2022-12-18T19:36:13;-2.10;99.90
1992;DHT22;997;48.448;8.924;2022-12-18T19:38:39;-2.10;99.90
1992;DHT22;997;48.448;8.924;2022-12-18T19:41:06;-2.20;99.90
1992;DHT22;997;48.448;8.924;2022-12-18T19:43:32;-2.30;99.90
1992;DHT22;997;48.448;8.924;2022-12-18T19:46:01;-2.20;99.90
1992;DHT22;997;48.448;8.924;2022-12-18T19:48:27;-2.10;99.90
1992;DHT22;997;48.448;8.924;2022-12-18T19:50:52;-1.90;99.90
1992;DHT22;997;48.448;8.924;2022-12-18T19:53:18;-1.60;99.90
1992;DHT22;997;48.448;8.924;2022-12-18T19:55:44;-1.60;99.90
1992;DHT22;997;48.448;8.924;2022-12-18T19:58:10;-1.50;99.90
1992;DHT22;997;48.448;8.924;2022-12-18T20:00:36;-1.50;99.90
1992;DHT22;997;48.448;8.924;2022-12-18T20:03:02;-1.40;99.90
1992;DHT22;997;48.448;8.924;2022-12-18T20:05:28;-1.30;99.90
1992;DHT22;997;48.448;8.924;2022-12-18T20:07:53;-1.20;99.90
1992;DHT22;997;48.448;8.924;2022-12-18T20:10:19;-1.20;99.90
1992;DHT22;997;48.448;8.924;2022-12-18T20:12:45;-1.20;99.90
1992;DHT22;997;48.448;8.924;2022-12-18T20:15:11;-1.20;99.90
1992;DHT22;997;48.448;8.924;2022-12-18T20:17:37;-1.30;99.90
1992;DHT22;997;48.448;8.924;2022-12-18T20:20:04;-1.40;99.90
1992;DHT22;997;48.448;8.924;2022-12-18T20:22:30;-1.40;99.90
1992;DHT22;997;48.448;8.924;2022-12-18T20:24:55;-1.40;99.90
1992;DHT22;997;48.448;8.924;2022-12-18T20:27:21;-1.40;99.90
1992;DHT22;997;48.448;8.924;2022-12-18T20:29:47;-1.70;99.90
1992;DHT22;997;48.448;8.924;2022-12-18T20:32:13;-1.70;99.90
1992;DHT22;997;48.448;8.924;2022-12-18T20:34:39;-1.70;99.90
1992;DHT22;997;48.448;8.924;2022-12-18T20:37:05;-1.80;99.90
1992;DHT22;997;48.448;8.924;2022-12-18T20:39:31;-1.90;99.90
1992;DHT22;997;48.448;8.924;2022-12-18T20:41:56;-1.90;99.90
1992;DHT22;997;48.448;8.924;2022-12-18T20:44:22;-2.00;99.90
1992;DHT22;997;48.448;8.924;2022-12-18T20:46:52;-2.00;99.90
1992;DHT22;997;48.448;8.924;2022-12-18T20:49:19;-2.00;99.90
1992;DHT22;997;48.448;8.924;2022-12-18T20:51:44;-1.80;99.90
1992;DHT22;997;48.448;8.924;2022-12-18T20:54:10;-1.80;99.90
1992;DHT22;997;48.448;8.924;2022-12-18T20:56:36;-1.60;99.90
1992;DHT22;997;48.448;8.924;2022-12-18T20:59:01;-1.60;99.90
1992;DHT22;997;48.448;8.924;2022-12-18T21:01:28;-1.70;99.90
1992;DHT22;997;48.448;8.924;2022-12-18T21:03:54;-1.70;99.90
1992;DHT22;997;48.448;8.924;2022-12-18T21:06:21;-1.60;99.90
1992;DHT22;997;48.448;8.924;2022-12-18T21:08:48;-1.50;99.90
1992;DHT22;997;48.448;8.924;2022-12-18T21:13:59;-1.30;99.90
1992;DHT22;997;48.448;8.924;2022-12-18T21:16:24;-1.30;99.90
1992;DHT22;997;48.448;8.924;2022-12-18T21:18:50;-1.20;99.90
1992;DHT22;997;48.448;8.924;2022-12-18T21:21:16;-1.30;99.90
1992;DHT22;997;48.448;8.924;2022-12-18T21:23:41;-1.30;99.90
1992;DHT22;997;48.448;8.924;2022-12-18T21:26:18;-1.30;99.90
1992;DHT22;997;48.448;8.924;2022-12-18T21:28:45;-1.30;99.90
1992;DHT22;997;48.448;8.924;2022-12-18T21:31:12;-1.20;99.90
1992;DHT22;997;48.448;8.924;2022-12-18T21:33:37;-1.10;99.90
1992;DHT22;997;48.448;8.924;2022-12-18T21:36:06;-1.10;99.90
1992;DHT22;997;48.448;8.924;2022-12-18T21:38:32;-1.10;99.90
1992;DHT22;997;48.448;8.924;2022-12-18T21:40:58;-1.10;99.90
1992;DHT22;997;48.448;8.924;2022-12-18T21:43:24;-1.00;99.90
1992;DHT22;997;48.448;8.924;2022-12-18T21:46:08;-1.00;99.90
1992;DHT22;997;48.448;8.924;2022-12-18T21:48:33;-1.00;99.90
1992;DHT22;997;48.448;8.924;2022-12-18T21:51:02;-0.80;99.90
1992;DHT22;997;48.448;8.924;2022-12-18T21:53:28;-0.70;99.90
1992;DHT22;997;48.448;8.924;2022-12-18T21:55:57;-0.80;99.90
1992;DHT22;997;48.448;8.924;2022-12-18T21:58:24;-0.70;99.90
1992;DHT22;997;48.448;8.924;2022-12-18T22:00:49;-0.70;99.90
1992;DHT22;997;48.448;8.924;2022-12-18T22:03:15;-0.70;99.90
1992;DHT22;997;48.448;8.924;2022-12-18T22:05:43;-0.60;99.90
1992;DHT22;997;48.448;8.924;2022-12-18T22:08:08;-0.70;99.90
1992;DHT22;997;48.448;8.924;2022-12-18T22:10:34;-0.60;99.90
1992;DHT22;997;48.448;8.924;2022-12-18T22:13:00;-0.50;99.90
1992;DHT22;997;48.448;8.924;2022-12-18T22:15:26;-0.40;99.90
1992;DHT22;997;48.448;8.924;2022-12-18T22:17:52;-0.60;99.90
1992;DHT22;997;48.448;8.924;2022-12-18T22:20:18;-0.50;99.90
1992;DHT22;997;48.448;8.924;2022-12-18T22:22:44;-0.40;99.90
1992;DHT22;997;48.448;8.924;2022-12-18T22:25:10;-0.30;99.90
1992;DHT22;997;48.448;8.924;2022-12-18T22:27:36;-0.40;99.90
1992;DHT22;997;48.448;8.924;2022-12-18T22:30:03;-0.50;99.90
